createdAt,value
2017-09-26T00:01:13.837Z,6.50
2017-09-26T00:03:41.426Z,6.70
2017-09-26T00:06:09.030Z,6.37
2017-09-26T00:08:37.722Z,6.40
2017-09-26T00:11:05.315Z,6.10
2017-09-26T00:13:32.890Z,6.37
2017-09-26T00:16:00.478Z,6.43
2017-09-26T00:18:28.079Z,5.60
2017-09-26T00:20:55.670Z,6.00
2017-09-26T00:23:23.259Z,6.50
2017-09-26T00:25:50.876Z,6.30
2017-09-26T00:28:18.467Z,6.67
2017-09-26T00:30:46.058Z,5.93
2017-09-26T00:33:13.837Z,6.00
2017-09-26T00:35:42.146Z,5.90
2017-09-26T00:38:10.424Z,5.60
2017-09-26T00:40:38.137Z,6.40
2017-09-26T00:43:05.734Z,5.57
2017-09-26T00:45:33.350Z,6.00
2017-09-26T00:48:00.969Z,6.60
2017-09-26T00:50:28.613Z,6.10
2017-09-26T00:52:56.230Z,6.03
2017-09-26T00:55:23.857Z,5.87
2017-09-26T00:57:52.026Z,6.10
2017-09-26T01:00:19.666Z,6.20
2017-09-26T01:02:47.454Z,6.30
2017-09-26T01:05:15.867Z,6.07
2017-09-26T01:07:43.970Z,6.50
2017-09-26T01:10:11.629Z,6.03
2017-09-26T01:12:40.041Z,5.97
2017-09-26T01:15:07.649Z,5.47
2017-09-26T01:17:36.054Z,6.00
2017-09-26T01:20:04.479Z,5.67
2017-09-26T01:22:32.122Z,5.53
2017-09-26T01:24:59.710Z,5.40
2017-09-26T01:27:27.290Z,5.40
2017-09-26T01:29:54.889Z,5.50
2017-09-26T01:32:22.511Z,6.30
2017-09-26T01:34:50.070Z,5.50
2017-09-26T01:37:17.649Z,5.40
2017-09-26T01:39:45.241Z,5.00
2017-09-26T01:42:12.826Z,5.90
2017-09-26T01:44:40.418Z,5.87
2017-09-26T01:47:08.036Z,5.60
2017-09-26T01:49:35.662Z,6.23
2017-09-26T01:52:03.268Z,5.40
2017-09-26T01:54:30.898Z,5.87
2017-09-26T01:56:59.966Z,5.20
2017-09-26T01:59:39.290Z,5.90
2017-09-26T02:02:07.646Z,5.03
2017-09-26T02:04:35.206Z,5.40
2017-09-26T02:07:02.802Z,5.20
2017-09-26T02:09:30.389Z,5.03
2017-09-26T02:11:58.368Z,5.57
2017-09-26T02:22:53.322Z,5.63
2017-09-26T02:25:20.906Z,5.10
2017-09-26T02:27:48.558Z,5.20
2017-09-26T02:30:16.202Z,4.93
2017-09-26T02:32:43.766Z,5.00
2017-09-26T02:35:11.758Z,6.00
2017-09-26T02:37:39.346Z,5.13
2017-09-26T02:40:06.911Z,4.80
2017-09-26T02:42:35.183Z,5.00
2017-09-26T02:45:02.747Z,5.60
2017-09-26T02:47:30.330Z,4.97
2017-09-26T02:49:57.946Z,5.70
2017-09-26T02:52:25.531Z,5.23
2017-09-26T02:54:53.857Z,4.97
2017-09-26T02:57:21.446Z,5.63
2017-09-26T02:59:49.029Z,5.00
2017-09-26T03:02:17.265Z,5.77
2017-09-26T03:04:44.858Z,5.53
2017-09-26T03:07:13.214Z,4.60
2017-09-26T03:09:40.778Z,4.80
2017-09-26T03:12:09.196Z,4.80
2017-09-26T03:14:37.553Z,5.20
2017-09-26T03:17:05.118Z,5.30
2017-09-26T03:19:32.734Z,5.40
2017-09-26T03:22:00.322Z,4.93
2017-09-26T03:24:27.887Z,5.20
2017-09-26T03:26:55.990Z,4.70
2017-09-26T03:29:24.322Z,5.10
2017-09-26T03:31:51.923Z,4.70
2017-09-26T03:34:20.441Z,5.10
2017-09-26T03:36:48.898Z,4.63
2017-09-26T03:39:16.526Z,5.67
2017-09-26T03:41:44.370Z,4.80
2017-09-26T03:44:11.937Z,4.60
2017-09-26T03:46:39.562Z,5.30
2017-09-26T03:49:07.159Z,5.10
2017-09-26T03:51:34.747Z,5.07
2017-09-26T03:54:03.127Z,5.53
2017-09-26T03:56:31.490Z,5.10
2017-09-26T03:58:59.112Z,4.77
2017-09-26T04:01:26.734Z,5.50
2017-09-26T04:03:55.057Z,4.60
2017-09-26T04:06:22.693Z,4.80
2017-09-26T04:08:50.993Z,4.47
2017-09-26T04:11:18.651Z,4.60
2017-09-26T04:13:47.310Z,5.87
2017-09-26T04:16:14.882Z,5.10
2017-09-26T04:18:42.846Z,5.17
2017-09-26T04:21:10.518Z,4.90
2017-09-26T04:26:48.373Z,4.17
2017-09-26T04:29:34.956Z,4.73
2017-09-26T04:32:26.070Z,4.47
2017-09-26T04:34:53.686Z,4.50
2017-09-26T04:37:21.294Z,5.23
2017-09-26T04:39:48.885Z,5.00
2017-09-26T04:42:16.554Z,4.90
2017-09-26T04:44:44.168Z,5.07
2017-09-26T04:47:11.761Z,4.47
2017-09-26T04:49:39.358Z,4.23
2017-09-26T04:52:07.682Z,4.50
2017-09-26T04:54:35.238Z,5.00
2017-09-26T04:57:02.823Z,4.80
2017-09-26T04:59:31.174Z,5.10
2017-09-26T05:01:59.862Z,5.27
2017-09-26T05:04:27.477Z,4.40
2017-09-26T05:06:55.618Z,4.90
2017-09-26T05:09:23.650Z,5.23
2017-09-26T05:11:51.644Z,4.73
2017-09-26T05:14:19.234Z,4.30
2017-09-26T05:16:46.827Z,4.10
2017-09-26T05:19:14.424Z,4.60
2017-09-26T05:21:41.985Z,4.87
2017-09-26T05:24:09.550Z,4.80
2017-09-26T05:26:37.142Z,4.73
2017-09-26T05:29:04.762Z,5.10
2017-09-26T05:31:33.236Z,5.50
2017-09-26T05:34:00.859Z,5.37
2017-09-26T05:36:29.239Z,5.17
2017-09-26T05:38:56.830Z,6.00
2017-09-26T05:41:24.422Z,5.47
2017-09-26T05:43:51.994Z,5.73
2017-09-26T05:46:19.628Z,5.53
2017-09-26T05:48:47.242Z,5.90
2017-09-26T05:51:14.822Z,7.07
2017-09-26T05:53:42.417Z,6.33
2017-09-26T05:56:10.027Z,22.63
2017-09-26T05:58:37.641Z,22.63
2017-09-26T06:01:05.210Z,18.53
2017-09-26T06:03:32.815Z,13.30
2017-09-26T06:06:00.387Z,13.03
2017-09-26T06:08:28.026Z,12.83
2017-09-26T06:10:56.498Z,11.40
2017-09-26T06:13:24.090Z,11.77
2017-09-26T06:15:51.677Z,13.10
2017-09-26T06:18:19.500Z,12.43
2017-09-26T06:20:47.074Z,23.67
2017-09-26T06:23:14.643Z,61.43
2017-09-26T06:25:42.234Z,45.00
2017-09-26T06:28:09.829Z,34.23
2017-09-26T06:30:37.407Z,15.83
2017-09-26T06:33:05.005Z,16.23
2017-09-26T06:35:32.638Z,20.83
2017-09-26T06:38:00.238Z,18.70
2017-09-26T06:40:27.864Z,18.93
2017-09-26T06:42:55.479Z,18.40
2017-09-26T06:45:23.126Z,18.57
2017-09-26T06:47:50.745Z,18.20
2017-09-26T06:50:18.315Z,17.57
2017-09-26T06:52:45.909Z,18.33
2017-09-26T06:55:13.511Z,17.63
2017-09-26T06:57:41.075Z,19.07
2017-09-26T07:00:08.673Z,19.23
2017-09-26T07:02:36.298Z,17.93
2017-09-26T07:05:03.887Z,17.47
2017-09-26T07:07:31.494Z,18.53
2017-09-26T07:09:59.114Z,18.10
2017-09-26T07:12:26.720Z,18.63
2017-09-26T07:14:54.658Z,18.90
2017-09-26T07:17:22.338Z,18.83
2017-09-26T07:19:50.591Z,19.07
2017-09-26T07:22:18.163Z,18.33
2017-09-26T07:24:46.550Z,19.50
2017-09-26T07:27:14.906Z,17.70
2017-09-26T07:29:42.474Z,18.70
2017-09-26T07:32:10.099Z,17.73
2017-09-26T07:34:38.386Z,18.53
2017-09-26T07:37:05.958Z,18.33
2017-09-26T07:39:33.914Z,18.90
2017-09-26T07:42:01.506Z,18.43
2017-09-26T07:44:29.130Z,18.73
2017-09-26T07:46:56.736Z,18.37
2017-09-26T07:49:25.090Z,17.67
2017-09-26T07:51:52.726Z,17.70
2017-09-26T07:54:21.177Z,18.47
2017-09-26T07:56:48.770Z,18.87
2017-09-26T07:59:17.078Z,18.77
2017-09-26T08:01:44.714Z,18.63
2017-09-26T08:04:15.594Z,17.03
2017-09-26T08:06:48.515Z,20.07
2017-09-26T08:09:19.052Z,17.90
2017-09-26T08:11:46.687Z,18.87
2017-09-26T08:14:14.921Z,19.10
2017-09-26T08:16:42.509Z,19.20
2017-09-26T08:19:10.106Z,18.73
2017-09-26T08:21:37.730Z,18.60
2017-09-26T08:24:05.302Z,18.77
2017-09-26T08:26:32.874Z,19.30
2017-09-26T08:29:00.756Z,18.40
2017-09-26T08:31:28.328Z,18.13
2017-09-26T08:33:55.922Z,18.90
2017-09-26T08:36:23.517Z,19.30
2017-09-26T08:38:51.114Z,18.70
2017-09-26T08:41:18.691Z,17.77
2017-09-26T08:43:46.290Z,20.17
2017-09-26T08:46:13.885Z,18.70
2017-09-26T08:48:41.482Z,19.23
2017-09-26T08:54:05.880Z,16.97
2017-09-26T08:56:43.068Z,19.00
2017-09-26T08:59:11.496Z,18.83
2017-09-26T09:01:39.068Z,19.20
2017-09-26T09:04:06.655Z,18.30
2017-09-26T09:06:34.240Z,18.63
2017-09-26T09:09:01.820Z,18.47
2017-09-26T09:11:29.396Z,18.03
2017-09-26T09:13:56.947Z,19.20
2017-09-26T09:16:24.495Z,18.20
2017-09-26T09:18:52.547Z,18.97
2017-09-26T09:21:20.159Z,19.13
2017-09-26T09:23:47.707Z,18.40
2017-09-26T09:26:15.309Z,17.93
2017-09-26T09:28:42.860Z,18.93
2017-09-26T09:31:10.436Z,18.80
2017-09-26T09:33:38.047Z,18.73
2017-09-26T09:36:05.607Z,18.80
2017-09-26T09:38:33.178Z,19.53
2017-09-26T09:41:00.755Z,18.90
2017-09-26T09:43:28.306Z,18.47
2017-09-26T09:45:55.856Z,18.37
2017-09-26T09:48:23.429Z,17.87
2017-09-26T09:50:50.975Z,17.37
2017-09-26T09:53:18.553Z,18.87
2017-09-26T09:55:46.123Z,17.37
2017-09-26T09:58:13.699Z,19.50
2017-09-26T10:00:41.299Z,18.77
2017-09-26T10:03:10.046Z,18.10
2017-09-26T10:05:37.599Z,18.63
2017-09-26T10:08:05.167Z,18.50
2017-09-26T10:10:32.848Z,18.23
2017-09-26T10:13:00.419Z,18.40
2017-09-26T10:15:27.992Z,16.87
2017-09-26T10:17:55.567Z,17.97
2017-09-26T10:20:23.122Z,17.60
2017-09-26T10:22:50.692Z,17.60
2017-09-26T10:25:18.268Z,16.80
2017-09-26T10:27:46.583Z,18.30
2017-09-26T10:30:14.155Z,16.90
2017-09-26T10:32:41.815Z,17.80
2017-09-26T10:35:09.368Z,17.40
2017-09-26T10:37:36.916Z,16.23
2017-09-26T10:40:04.488Z,17.40
2017-09-26T10:42:32.060Z,17.50
2017-09-26T10:44:59.624Z,18.03
2017-09-26T10:47:27.200Z,17.53
2017-09-26T10:49:54.748Z,17.70
2017-09-26T10:52:22.300Z,18.17
2017-09-26T10:54:49.901Z,17.27
2017-09-26T10:57:17.452Z,17.20
2017-09-26T10:59:45.023Z,17.00
2017-09-26T11:02:12.920Z,18.87
2017-09-26T11:04:40.492Z,16.47
2017-09-26T11:07:08.065Z,17.50
2017-09-26T11:09:35.671Z,17.27
2017-09-26T11:12:03.223Z,16.90
2017-09-26T11:14:30.771Z,17.67
2017-09-26T11:16:58.368Z,18.17
2017-09-26T11:19:25.982Z,17.50
2017-09-26T11:21:53.580Z,17.97
2017-09-26T11:24:22.072Z,17.17
2017-09-26T11:26:49.627Z,15.87
2017-09-26T11:29:17.191Z,16.87
2017-09-26T11:31:46.488Z,15.60
2017-09-26T11:34:14.599Z,15.10
2017-09-26T11:36:42.172Z,16.03
2017-09-26T11:39:09.751Z,16.13
2017-09-26T11:41:37.296Z,14.40
2017-09-26T11:44:04.880Z,14.17
2017-09-26T11:46:32.463Z,15.67
2017-09-26T11:49:00.011Z,15.30
2017-09-26T11:51:28.348Z,14.00
2017-09-26T11:53:56.275Z,12.83
2017-09-26T11:56:24.085Z,14.70
2017-09-26T11:58:51.660Z,12.57
2017-09-26T12:01:19.404Z,15.13
2017-09-26T12:03:46.960Z,14.23
2017-09-26T12:06:14.536Z,14.57
2017-09-26T12:08:42.176Z,15.20
2017-09-26T12:11:09.731Z,13.70
2017-09-26T12:13:43.007Z,13.07
2017-09-26T12:16:10.592Z,14.13
2017-09-26T12:18:38.140Z,12.83
2017-09-26T12:21:06.256Z,12.30
2017-09-26T12:23:33.853Z,11.80
2017-09-26T12:26:01.405Z,11.87
2017-09-26T12:28:28.997Z,11.57
2017-09-26T12:30:56.719Z,11.23
2017-09-26T12:33:24.295Z,11.50
2017-09-26T12:35:51.877Z,11.63
2017-09-26T12:38:20.129Z,10.43
2017-09-26T12:40:47.707Z,10.33
2017-09-26T12:43:15.280Z,10.10
2017-09-26T12:45:43.163Z,10.27
2017-09-26T12:48:10.768Z,9.90
2017-09-26T12:50:38.352Z,9.57
2017-09-26T12:53:05.968Z,8.90
2017-09-26T12:55:33.556Z,9.60
2017-09-26T12:58:01.896Z,9.37
2017-09-26T13:00:29.501Z,9.07
2017-09-26T13:02:57.846Z,8.97
2017-09-26T13:05:25.433Z,8.30
2017-09-26T13:07:53.800Z,7.60
2017-09-26T13:10:21.381Z,8.23
2017-09-26T13:12:48.964Z,8.43
2017-09-26T13:15:16.556Z,8.10
2017-09-26T13:17:44.129Z,7.17
2017-09-26T13:20:11.708Z,7.67
2017-09-26T13:22:39.326Z,7.90
2017-09-26T13:25:06.896Z,7.33
2017-09-26T13:27:34.468Z,6.87
2017-09-26T13:30:02.064Z,8.00
2017-09-26T13:32:29.639Z,7.60
2017-09-26T13:34:57.188Z,7.53
2017-09-26T13:37:25.227Z,6.90
2017-09-26T13:39:52.773Z,7.67
2017-09-26T13:42:20.351Z,7.53
2017-09-26T13:44:48.717Z,7.63
2017-09-26T13:47:16.288Z,7.33
2017-09-26T13:49:44.631Z,7.27
2017-09-26T13:52:12.676Z,6.23
2017-09-26T13:54:40.253Z,7.47
2017-09-26T13:57:07.832Z,7.10
2017-09-26T13:59:36.039Z,7.33
2017-09-26T14:02:03.622Z,6.90
2017-09-26T14:04:31.202Z,7.23
2017-09-26T14:06:58.805Z,6.87
2017-09-26T14:09:26.370Z,6.80
2017-09-26T14:11:53.943Z,6.57
2017-09-26T14:14:22.303Z,6.33
2017-09-26T14:16:50.681Z,6.53
2017-09-26T14:19:18.223Z,6.57
2017-09-26T14:21:45.788Z,6.40
2017-09-26T14:24:13.356Z,7.07
2017-09-26T14:26:41.668Z,6.67
2017-09-26T14:29:09.235Z,6.80
2017-09-26T14:31:36.779Z,6.57
2017-09-26T14:34:04.401Z,6.47
2017-09-26T14:36:31.975Z,7.10
2017-09-26T14:38:59.551Z,6.27
2017-09-26T14:41:27.132Z,6.73
2017-09-26T14:43:54.857Z,6.70
2017-09-26T14:46:22.407Z,6.60
2017-09-26T14:48:50.150Z,6.50
2017-09-26T14:51:18.088Z,6.30
2017-09-26T14:53:45.651Z,6.03
2017-09-26T14:56:13.230Z,6.50
2017-09-26T14:58:41.523Z,6.27
2017-09-26T15:01:09.071Z,7.07
2017-09-26T15:03:36.621Z,5.90
2017-09-26T15:06:04.924Z,6.20
2017-09-26T15:08:32.564Z,6.20
2017-09-26T15:11:00.136Z,6.27
2017-09-26T15:13:28.244Z,6.77
2017-09-26T15:15:55.780Z,6.90
2017-09-26T15:18:23.324Z,6.50
2017-09-26T15:20:50.888Z,7.10
2017-09-26T15:23:18.461Z,5.87
2017-09-26T15:25:46.036Z,5.53
2017-09-26T15:28:13.607Z,6.53
2017-09-26T15:30:41.160Z,6.00
2017-09-26T15:33:08.860Z,6.20
2017-09-26T15:35:36.434Z,6.47
2017-09-26T15:38:04.003Z,5.73
2017-09-26T15:40:31.554Z,6.30
2017-09-26T15:42:59.873Z,6.10
2017-09-26T15:45:27.444Z,5.97
2017-09-26T15:47:55.012Z,5.67
2017-09-26T15:50:23.464Z,5.90
2017-09-26T15:52:51.008Z,6.13
2017-09-26T15:55:18.571Z,5.60
2017-09-26T15:57:46.180Z,6.40
2017-09-26T16:00:13.723Z,6.00
2017-09-26T16:02:41.271Z,6.13
2017-09-26T16:05:09.012Z,5.97
2017-09-26T16:07:36.583Z,6.33
2017-09-26T16:10:04.155Z,6.13
2017-09-26T16:12:31.748Z,6.60
2017-09-26T16:14:59.317Z,6.13
2017-09-26T16:17:26.900Z,6.83
2017-09-26T16:19:54.495Z,5.97
2017-09-26T16:22:22.044Z,5.53
2017-09-26T16:24:49.721Z,6.00
2017-09-26T16:27:17.307Z,6.00
2017-09-26T16:29:44.857Z,5.97
2017-09-26T16:32:13.188Z,6.23
2017-09-26T16:34:40.899Z,6.57
2017-09-26T16:37:08.468Z,6.50
2017-09-26T16:39:36.680Z,6.03
2017-09-26T16:42:04.303Z,5.90
2017-09-26T16:44:31.843Z,5.70
2017-09-26T16:46:59.413Z,6.20
2017-09-26T16:49:27.007Z,6.07
2017-09-26T16:51:54.579Z,5.70
2017-09-26T16:54:22.131Z,6.03
2017-09-26T16:56:49.809Z,5.40
2017-09-26T16:59:17.377Z,5.87
2017-09-26T17:01:44.959Z,5.90
2017-09-26T17:04:12.535Z,6.20
2017-09-26T17:06:40.103Z,6.00
2017-09-26T17:09:07.667Z,5.77
2017-09-26T17:11:35.498Z,5.50
2017-09-26T17:14:03.077Z,5.50
2017-09-26T17:16:30.628Z,5.93
2017-09-26T17:18:58.988Z,5.90
2017-09-26T17:21:26.573Z,5.63
2017-09-26T17:23:54.120Z,5.30
2017-09-26T17:26:21.723Z,5.33
2017-09-26T17:28:49.296Z,5.53
2017-09-26T17:31:16.863Z,5.97
2017-09-26T17:33:44.627Z,5.33
2017-09-26T17:36:12.175Z,6.13
2017-09-26T17:38:39.736Z,6.20
2017-09-26T17:41:07.337Z,6.10
2017-09-26T17:43:34.920Z,4.83
2017-09-26T17:46:02.790Z,5.50
2017-09-26T17:48:30.411Z,5.40
2017-09-26T17:50:57.962Z,5.53
2017-09-26T17:53:25.536Z,5.70
2017-09-26T17:55:53.156Z,5.47
2017-09-26T17:58:20.739Z,5.77
2017-09-26T18:00:48.322Z,5.40
2017-09-26T18:03:15.953Z,6.20
2017-09-26T18:05:43.539Z,5.47
2017-09-26T18:08:11.107Z,5.03
2017-09-26T18:10:39.363Z,5.80
2017-09-26T18:13:07.681Z,5.60
2017-09-26T18:15:35.269Z,5.70
2017-09-26T18:18:02.863Z,5.47
2017-09-26T18:20:30.421Z,4.93
2017-09-26T18:22:57.991Z,5.20
2017-09-26T18:25:25.593Z,5.60
2017-09-26T18:27:53.930Z,5.53
2017-09-26T18:30:21.503Z,4.77
2017-09-26T18:32:49.998Z,5.10
2017-09-26T18:35:17.594Z,5.57
2017-09-26T18:37:45.234Z,5.17
2017-09-26T18:40:12.849Z,5.20
2017-09-26T18:42:40.437Z,5.27
2017-09-26T18:45:08.014Z,5.30
2017-09-26T18:47:35.735Z,5.33
2017-09-26T18:50:03.939Z,5.30
2017-09-26T18:52:31.525Z,5.40
2017-09-26T18:54:59.486Z,5.63
2017-09-26T18:57:28.718Z,5.60
2017-09-26T18:59:57.250Z,5.40
2017-09-26T19:02:26.599Z,5.73
2017-09-26T19:04:54.224Z,5.43
2017-09-26T19:07:22.359Z,5.30
2017-09-26T19:09:51.500Z,5.50
2017-09-26T19:12:19.668Z,6.20
2017-09-26T19:14:47.473Z,5.90
2017-09-26T19:17:16.567Z,5.10
2017-09-26T19:19:44.179Z,6.53
2017-09-26T19:22:11.776Z,6.30
2017-09-26T19:24:39.414Z,5.57
2017-09-26T19:27:07.034Z,5.00
2017-09-26T19:29:34.643Z,6.03
2017-09-26T19:32:03.094Z,5.87
2017-09-26T19:34:31.525Z,5.90
2017-09-26T19:36:59.130Z,5.60
2017-09-26T19:39:27.304Z,5.87
2017-09-26T19:41:54.929Z,6.00
2017-09-26T19:44:22.517Z,6.13
2017-09-26T19:46:51.173Z,6.33
2017-09-26T19:49:18.769Z,5.60
2017-09-26T19:51:46.496Z,6.43
2017-09-26T19:54:14.143Z,6.10
2017-09-26T19:56:41.725Z,6.80
2017-09-26T19:59:09.397Z,6.73
2017-09-26T20:01:37.070Z,7.13
2017-09-26T20:04:04.686Z,7.30
2017-09-26T20:06:32.282Z,6.77
2017-09-26T20:08:59.900Z,6.27
2017-09-26T20:11:27.475Z,7.13
2017-09-26T20:13:55.058Z,6.83
2017-09-26T20:16:23.027Z,6.60
2017-09-26T20:18:50.617Z,7.07
2017-09-26T20:21:18.210Z,6.57
2017-09-26T20:23:47.877Z,7.00
2017-09-26T20:26:15.455Z,6.50
2017-09-26T20:28:43.047Z,7.10
2017-09-26T20:31:10.824Z,6.40
2017-09-26T20:33:38.424Z,6.93
2017-09-26T20:36:07.835Z,6.40
2017-09-26T20:38:35.688Z,6.20
2017-09-26T20:41:03.286Z,6.80
2017-09-26T20:43:30.864Z,6.57
2017-09-26T20:45:59.209Z,5.60
2017-09-26T20:48:26.797Z,5.90
2017-09-26T20:50:54.386Z,6.03
2017-09-26T20:53:22.014Z,5.63
2017-09-26T20:55:49.637Z,5.93
2017-09-26T20:58:17.757Z,5.47
2017-09-26T21:00:45.847Z,6.43
2017-09-26T21:03:13.391Z,5.77
2017-09-26T21:05:41.012Z,6.43
2017-09-26T21:08:08.616Z,5.60
2017-09-26T21:10:36.895Z,5.43
2017-09-26T21:13:04.483Z,6.67
2017-09-26T21:15:32.891Z,7.37
2017-09-26T21:18:01.412Z,6.40
2017-09-26T21:20:28.998Z,6.63
2017-09-26T21:22:56.605Z,6.37
2017-09-26T21:25:24.704Z,7.20
2017-09-26T21:27:52.276Z,7.63
2017-09-26T21:30:19.853Z,7.87
2017-09-26T21:32:47.470Z,8.23
2017-09-26T21:35:15.056Z,9.07
2017-09-26T21:37:42.647Z,9.70
2017-09-26T21:40:10.195Z,10.00
2017-09-26T21:42:37.756Z,8.33
2017-09-26T21:45:05.334Z,8.90
2017-09-26T21:47:33.172Z,9.20
2017-09-26T21:50:00.801Z,9.17
2017-09-26T21:52:28.412Z,10.50
2017-09-26T21:54:55.966Z,9.37
2017-09-26T21:57:23.541Z,9.10
2017-09-26T21:59:51.525Z,9.50
2017-09-26T22:02:19.083Z,9.50
2017-09-26T22:04:46.662Z,10.50
2017-09-26T22:07:14.269Z,9.93
2017-09-26T22:09:41.843Z,10.17
2017-09-26T22:12:09.388Z,9.03
2017-09-26T22:14:36.963Z,9.70
2017-09-26T22:17:05.275Z,9.30
2017-09-26T22:19:32.827Z,10.90
2017-09-26T22:22:00.398Z,9.87
2017-09-26T22:24:27.988Z,9.67
2017-09-26T22:26:55.746Z,9.43
2017-09-26T22:29:23.319Z,9.93
2017-09-26T22:31:50.872Z,9.57
2017-09-26T22:34:18.424Z,9.37
2017-09-26T22:36:45.999Z,10.10
2017-09-26T22:39:13.551Z,9.47
2017-09-26T22:41:41.135Z,9.90
2017-09-26T22:44:08.720Z,9.40
2017-09-26T22:46:36.284Z,10.33
2017-09-26T22:49:03.831Z,9.40
2017-09-26T22:51:31.417Z,10.43
2017-09-26T22:53:58.987Z,9.97
2017-09-26T22:56:26.537Z,9.00
2017-09-26T22:58:54.132Z,8.00
2017-09-26T23:01:21.703Z,8.80
2017-09-26T23:03:49.285Z,9.47
2017-09-26T23:06:16.944Z,9.87
2017-09-26T23:08:45.264Z,9.40
2017-09-26T23:11:12.808Z,8.40
2017-09-26T23:13:41.019Z,8.60
2017-09-26T23:16:08.588Z,9.67
2017-09-26T23:18:36.919Z,8.83
2017-09-26T23:21:04.499Z,9.13
2017-09-26T23:23:32.884Z,9.43
2017-09-26T23:26:00.459Z,8.67
2017-09-26T23:28:28.823Z,9.40
2017-09-26T23:30:56.364Z,8.87
2017-09-26T23:33:24.759Z,8.13
2017-09-26T23:35:52.346Z,8.37
2017-09-26T23:38:19.888Z,8.10
2017-09-26T23:40:47.460Z,9.13
2017-09-26T23:43:15.987Z,9.03
2017-09-26T23:45:43.532Z,9.00
2017-09-26T23:48:11.108Z,9.40
2017-09-26T23:50:38.696Z,8.90
2017-09-26T23:53:06.263Z,8.63
2017-09-26T23:55:33.832Z,8.40
2017-09-26T23:58:01.433Z,9.37
